createdAt,value
2023-03-31T00:03:03.736Z,989.64
2023-03-31T00:08:02.554Z,989.57
2023-03-31T00:13:02.493Z,989.50
2023-03-31T00:18:02.575Z,989.39
2023-03-31T00:23:02.354Z,989.27
2023-03-31T00:28:02.323Z,989.25
2023-03-31T00:33:02.278Z,989.03
2023-03-31T00:38:02.214Z,988.99
2023-03-31T00:43:02.114Z,988.89
2023-03-31T00:48:02.133Z,988.82
2023-03-31T00:53:02.232Z,988.82
2023-03-31T00:58:01.977Z,988.78
2023-03-31T01:03:01.936Z,988.53
2023-03-31T01:08:01.832Z,988.48
2023-03-31T01:13:01.899Z,988.28
2023-03-31T01:18:01.947Z,988.15
2023-03-31T01:23:01.759Z,987.89
2023-03-31T01:28:02.714Z,987.89
2023-03-31T01:33:01.634Z,987.92
2023-03-31T01:38:01.530Z,987.88
2023-03-31T01:43:01.480Z,987.81
2023-03-31T01:48:01.416Z,987.65
2023-03-31T01:53:01.333Z,987.58
2023-03-31T01:58:01.328Z,987.52
2023-03-31T02:03:01.254Z,987.42
2023-03-31T02:08:01.194Z,987.33
2023-03-31T02:13:01.115Z,987.28
2023-03-31T02:18:01.092Z,987.08
2023-03-31T02:23:01.029Z,987.12
2023-03-31T02:28:00.972Z,987.05
2023-03-31T02:33:01.105Z,986.87
2023-03-31T02:38:00.867Z,986.78
2023-03-31T02:43:00.800Z,986.62
2023-03-31T02:48:00.816Z,986.40
2023-03-31T02:53:00.708Z,986.25
2023-03-31T02:58:00.698Z,986.08
2023-03-31T03:03:00.706Z,985.87
2023-03-31T03:08:00.524Z,985.83
2023-03-31T03:13:00.538Z,985.74
2023-03-31T03:18:00.522Z,985.60
2023-03-31T03:23:00.384Z,985.40
2023-03-31T03:28:00.325Z,985.14
2023-03-31T03:33:00.352Z,985.20
2023-03-31T03:38:00.245Z,985.11
2023-03-31T03:43:00.142Z,984.93
2023-03-31T03:48:00.189Z,984.96
2023-03-31T03:53:00.052Z,984.81
2023-03-31T03:57:59.941Z,984.63
2023-03-31T04:02:59.943Z,984.64
2023-03-31T04:07:59.870Z,984.54
2023-03-31T04:12:59.801Z,984.22
2023-03-31T04:18:09.605Z,984.20
2023-03-31T04:22:59.706Z,984.15
2023-03-31T04:27:59.750Z,984.16
2023-03-31T04:32:59.720Z,984.05
2023-03-31T04:37:59.522Z,984.02
2023-03-31T04:42:59.500Z,983.93
2023-03-31T04:47:59.411Z,983.67
2023-03-31T04:52:59.326Z,983.69
2023-03-31T04:57:59.303Z,983.50
2023-03-31T05:03:01.372Z,983.27
2023-03-31T05:07:59.198Z,983.33
2023-03-31T05:12:59.130Z,982.98
2023-03-31T05:17:59.106Z,982.81
2023-03-31T05:22:59.016Z,982.77
2023-03-31T05:27:58.962Z,982.60
2023-03-31T05:32:59.086Z,982.49
2023-03-31T05:37:59.898Z,982.46
2023-03-31T05:42:58.874Z,982.27
2023-03-31T05:47:58.868Z,982.23
2023-03-31T05:52:58.709Z,982.09
2023-03-31T05:57:58.629Z,982.05
2023-03-31T06:02:58.701Z,981.97
2023-03-31T06:08:01.847Z,982.03
2023-03-31T06:12:58.532Z,981.91
2023-03-31T06:17:58.476Z,981.92
2023-03-31T06:22:58.340Z,981.85
2023-03-31T06:27:58.289Z,981.69
2023-03-31T06:32:58.290Z,981.67
2023-03-31T06:37:58.200Z,981.64
2023-03-31T06:42:58.115Z,981.61
2023-03-31T06:47:58.172Z,981.64
2023-03-31T06:52:58.030Z,981.49
2023-03-31T06:57:57.956Z,981.54
2023-03-31T07:02:57.977Z,981.65
2023-03-31T07:07:57.823Z,981.62
2023-03-31T07:12:57.804Z,981.49
2023-03-31T07:17:57.743Z,981.55
2023-03-31T07:22:57.708Z,981.36
2023-03-31T07:27:57.632Z,981.34
2023-03-31T07:32:57.620Z,981.33
2023-03-31T07:37:57.488Z,981.27
2023-03-31T07:42:57.477Z,981.24
2023-03-31T07:47:57.430Z,981.20
2023-03-31T07:52:57.326Z,981.19
2023-03-31T07:57:57.302Z,981.17
2023-03-31T08:02:57.252Z,981.14
2023-03-31T08:07:57.182Z,981.01
2023-03-31T08:12:57.101Z,980.97
2023-03-31T08:17:57.128Z,980.84
2023-03-31T08:22:57.001Z,980.80
2023-03-31T08:27:57.003Z,980.82
2023-03-31T08:32:56.925Z,980.78
2023-03-31T08:37:56.820Z,980.72
2023-03-31T08:42:56.769Z,980.73
2023-03-31T08:47:56.771Z,980.72
2023-03-31T08:52:56.673Z,980.67
2023-03-31T08:57:56.637Z,980.64
2023-03-31T09:02:56.631Z,980.62
2023-03-31T09:07:56.519Z,980.56
2023-03-31T09:12:56.455Z,980.57
2023-03-31T09:17:56.437Z,980.49
2023-03-31T09:22:56.312Z,980.39
2023-03-31T09:27:56.315Z,980.35
2023-03-31T09:32:56.348Z,980.26
2023-03-31T09:37:56.155Z,980.12
2023-03-31T09:42:56.110Z,980.02
2023-03-31T09:47:56.143Z,979.99
2023-03-31T09:52:56.021Z,979.89
2023-03-31T09:57:55.982Z,979.93
2023-03-31T10:02:55.909Z,979.90
2023-03-31T10:07:55.870Z,979.65
2023-03-31T10:12:55.792Z,979.56
2023-03-31T10:18:04.620Z,979.39
2023-03-31T10:22:55.728Z,979.62
2023-03-31T10:27:55.878Z,979.62
2023-03-31T10:32:55.758Z,979.51
2023-03-31T10:37:55.579Z,979.45
2023-03-31T10:42:55.973Z,979.43
2023-03-31T10:47:55.504Z,979.30
2023-03-31T10:52:55.423Z,979.15
2023-03-31T10:57:55.330Z,978.96
2023-03-31T11:02:55.345Z,978.69
2023-03-31T11:07:55.232Z,978.56
2023-03-31T11:12:55.164Z,978.48
2023-03-31T11:17:55.181Z,978.63
2023-03-31T11:22:55.217Z,979.13
2023-03-31T11:27:55.105Z,979.24
2023-03-31T11:32:55.746Z,979.22
2023-03-31T11:37:54.960Z,979.33
2023-03-31T11:42:54.888Z,979.30
2023-03-31T11:47:54.811Z,979.25
2023-03-31T11:52:54.703Z,979.18
2023-03-31T11:57:54.677Z,979.13
2023-03-31T12:02:54.748Z,979.08
2023-03-31T12:07:55.765Z,978.97
2023-03-31T12:12:54.777Z,978.87
2023-03-31T12:17:54.656Z,978.82
2023-03-31T12:22:54.618Z,978.76
2023-03-31T12:27:54.444Z,978.70
2023-03-31T12:32:54.389Z,978.58
2023-03-31T12:37:54.308Z,978.66
2023-03-31T12:42:54.267Z,978.75
2023-03-31T12:47:54.251Z,978.72
2023-03-31T12:52:54.300Z,978.77
2023-03-31T12:57:56.395Z,978.75
2023-03-31T13:02:55.183Z,978.66
2023-03-31T13:07:54.360Z,978.45
2023-03-31T13:12:54.363Z,978.41
2023-03-31T13:17:54.962Z,978.32
2023-03-31T13:22:53.847Z,978.38
2023-03-31T13:27:53.884Z,978.42
2023-03-31T13:32:53.760Z,978.41
2023-03-31T13:37:53.634Z,978.23
2023-03-31T13:42:53.543Z,978.21
2023-03-31T13:47:53.540Z,978.18
2023-03-31T13:52:53.410Z,978.09
2023-03-31T13:57:53.352Z,978.08
2023-03-31T14:02:53.474Z,978.07
2023-03-31T14:07:53.271Z,978.11
2023-03-31T14:12:53.190Z,978.03
2023-03-31T14:17:53.254Z,977.99
2023-03-31T14:22:53.481Z,977.87
2023-03-31T14:27:53.102Z,977.80
2023-03-31T14:32:53.174Z,977.85
2023-03-31T14:37:53.027Z,977.71
2023-03-31T14:42:52.938Z,977.65
2023-03-31T14:47:52.990Z,977.50
2023-03-31T14:52:52.758Z,977.50
2023-03-31T14:57:52.705Z,977.42
2023-03-31T15:02:52.801Z,977.57
2023-03-31T15:07:52.831Z,977.57
2023-03-31T15:12:52.559Z,977.64
2023-03-31T15:17:52.723Z,977.69
2023-03-31T15:25:15.228Z,977.89
2023-03-31T15:33:53.914Z,978.29
2023-03-31T15:38:55.038Z,978.24
2023-03-31T15:43:53.790Z,978.16
2023-03-31T15:48:54.838Z,978.33
2023-03-31T15:53:54.068Z,978.06
2023-03-31T15:58:58.090Z,977.89
2023-03-31T16:18:30.678Z,977.93
2023-03-31T16:24:40.794Z,977.91
2023-03-31T16:29:40.769Z,977.86
2023-03-31T16:34:40.726Z,977.90
2023-03-31T16:39:40.640Z,977.88
2023-03-31T16:44:41.629Z,977.88
2023-03-31T16:49:40.542Z,977.89
2023-03-31T16:54:40.495Z,977.81
2023-03-31T16:59:40.454Z,977.80
2023-03-31T17:04:40.379Z,977.77
2023-03-31T17:09:40.331Z,977.73
2023-03-31T17:14:40.263Z,977.55
2023-03-31T17:19:40.221Z,977.67
2023-03-31T17:24:40.186Z,977.73
2023-03-31T17:29:40.122Z,977.73
2023-03-31T17:34:40.060Z,977.80
2023-03-31T17:39:39.981Z,977.82
2023-03-31T17:44:39.947Z,977.90
2023-03-31T17:49:39.915Z,977.97
2023-03-31T17:54:39.877Z,978.08
2023-03-31T17:59:39.806Z,978.12
2023-03-31T18:04:39.783Z,978.15
2023-03-31T18:09:39.720Z,978.07
2023-03-31T18:14:39.610Z,978.07
2023-03-31T18:19:39.631Z,978.00
2023-03-31T18:24:39.557Z,978.10
2023-03-31T18:29:39.513Z,978.12
2023-03-31T18:34:39.463Z,978.04
2023-03-31T18:39:39.372Z,978.20
2023-03-31T18:44:39.330Z,978.23
2023-03-31T18:49:39.247Z,978.18
2023-03-31T18:54:39.211Z,978.25
2023-03-31T18:59:40.189Z,978.24
2023-03-31T19:04:39.172Z,978.23
2023-03-31T19:09:39.105Z,978.24
2023-03-31T19:14:39.005Z,978.22
2023-03-31T19:19:38.894Z,978.33
2023-03-31T19:24:38.887Z,978.29
2023-03-31T19:29:38.901Z,978.24
2023-03-31T19:34:38.787Z,978.29
2023-03-31T19:39:38.690Z,978.18
2023-03-31T19:44:38.658Z,978.20
2023-03-31T19:49:38.628Z,978.17
2023-03-31T19:54:38.587Z,978.06
2023-03-31T19:59:38.465Z,978.17
2023-03-31T20:04:38.647Z,978.14
2023-03-31T20:09:38.405Z,978.14
2023-03-31T20:14:38.327Z,978.02
2023-03-31T20:19:38.273Z,978.09
2023-03-31T20:24:38.239Z,978.04
2023-03-31T20:29:38.183Z,978.07
2023-03-31T20:34:38.221Z,978.01
2023-03-31T20:39:38.043Z,978.10
2023-03-31T20:44:38.012Z,977.98
2023-03-31T20:49:37.950Z,978.00
2023-03-31T20:54:37.906Z,978.07
2023-03-31T20:59:37.881Z,978.09
2023-03-31T21:04:37.796Z,978.09
2023-03-31T21:09:37.731Z,978.09
2023-03-31T21:14:37.708Z,978.07
2023-03-31T21:19:37.677Z,978.08
2023-03-31T21:24:37.580Z,978.11
2023-03-31T21:29:37.526Z,978.10
2023-03-31T21:34:37.504Z,978.13
2023-03-31T21:39:37.401Z,978.14
2023-03-31T21:44:37.339Z,978.06
2023-03-31T21:49:37.341Z,978.24
2023-03-31T21:54:37.244Z,978.16
2023-03-31T21:59:37.199Z,978.13
2023-03-31T22:04:37.199Z,978.07
2023-03-31T22:09:37.057Z,978.01
2023-03-31T22:14:37.023Z,978.06
2023-03-31T22:19:36.992Z,978.02
2023-03-31T22:24:45.820Z,978.00
2023-03-31T22:29:36.987Z,977.87
2023-03-31T22:34:36.854Z,977.99
2023-03-31T22:39:36.818Z,977.93
2023-03-31T22:44:36.783Z,978.03
2023-03-31T22:49:36.720Z,978.07
2023-03-31T22:54:36.661Z,977.97
2023-03-31T22:59:36.601Z,977.99
2023-03-31T23:04:36.580Z,977.91
2023-03-31T23:09:36.510Z,978.02
2023-03-31T23:14:36.476Z,978.05
2023-03-31T23:19:36.359Z,977.93
2023-03-31T23:24:36.320Z,978.03
2023-03-31T23:29:36.257Z,978.06
2023-03-31T23:34:36.219Z,977.95
2023-03-31T23:39:36.131Z,978.02
2023-03-31T23:44:36.088Z,978.02
2023-03-31T23:49:36.011Z,978.00
2023-03-31T23:54:35.959Z,977.92
2023-03-31T23:59:35.917Z,977.84
